Terminal Aerodrome Forecast
Issued by NWS

Home | Current Version | Previous Version | Text Only | Print | Product List | Glossary On
Versions: 1 2 3 4 5 6 7 8 9 10 11 12 13 14
000
FTUS46 KEKA 280520
TAFUKI
TAF
KUKI 280520Z 2806/2906 00000KT P6SM BKN150
     FM281900 15008KT P6SM OVC150
     FM282200 21010G18KT P6SM OVC150
     FM290200 33008KT P6SM BKN200=

USA.gov is the U.S. government's official web portal to all federal, state and local government web resources and services.